sensor_id;sensor_type;location;lat;lon;timestamp;temperature;humidity
18624;DHT22;9441;51.420;7.036;2024-02-23T00:00:57;6.20;1.00
18624;DHT22;9441;51.420;7.036;2024-02-23T00:01:58;6.20;1.00
18624;DHT22;9441;51.420;7.036;2024-02-23T00:03:00;6.30;99.90
18624;DHT22;9441;51.420;7.036;2024-02-23T00:04:01;6.20;1.00
18624;DHT22;9441;51.420;7.036;2024-02-23T00:05:04;6.20;1.00
18624;DHT22;9441;51.420;7.036;2024-02-23T00:06:05;6.20;1.00
18624;DHT22;9441;51.420;7.036;2024-02-23T00:07:09;6.20;1.00
18624;DHT22;9441;51.420;7.036;2024-02-23T00:08:10;6.20;1.00
18624;DHT22;9441;51.420;7.036;2024-02-23T00:09:12;6.20;1.00
18624;DHT22;9441;51.420;7.036;2024-02-23T00:10:13;6.10;1.00
18624;DHT22;9441;51.420;7.036;2024-02-23T00:11:16;6.10;1.00
18624;DHT22;9441;51.420;7.036;2024-02-23T00:12:18;6.20;1.00
18624;DHT22;9441;51.420;7.036;2024-02-23T00:13:20;6.20;1.00
18624;DHT22;9441;51.420;7.036;2024-02-23T00:14:21;6.10;1.00
18624;DHT22;9441;51.420;7.036;2024-02-23T00:15:23;6.10;1.00
18624;DHT22;9441;51.420;7.036;2024-02-23T00:16:26;6.10;1.00
18624;DHT22;9441;51.420;7.036;2024-02-23T00:17:28;6.10;1.00
18624;DHT22;9441;51.420;7.036;2024-02-23T00:18:29;6.00;99.90
18624;DHT22;9441;51.420;7.036;2024-02-23T00:19:31;6.10;99.90
18624;DHT22;9441;51.420;7.036;2024-02-23T00:20:33;6.10;99.90
18624;DHT22;9441;51.420;7.036;2024-02-23T00:21:36;6.10;99.90
18624;DHT22;9441;51.420;7.036;2024-02-23T00:22:37;6.10;99.90
18624;DHT22;9441;51.420;7.036;2024-02-23T00:23:39;6.10;1.00
18624;DHT22;9441;51.420;7.036;2024-02-23T00:24:40;6.10;1.00
18624;DHT22;9441;51.420;7.036;2024-02-23T00:25:43;6.10;1.00
18624;DHT22;9441;51.420;7.036;2024-02-23T00:26:44;6.10;1.00
18624;DHT22;9441;51.420;7.036;2024-02-23T00:27:48;6.10;1.00
18624;DHT22;9441;51.420;7.036;2024-02-23T00:28:49;6.10;1.00
18624;DHT22;9441;51.420;7.036;2024-02-23T00:29:50;6.10;9.80
18624;DHT22;9441;51.420;7.036;2024-02-23T00:30:52;6.10;99.90
18624;DHT22;9441;51.420;7.036;2024-02-23T00:31:53;6.10;99.90
18624;DHT22;9441;51.420;7.036;2024-02-23T00:32:55;6.10;99.90
18624;DHT22;9441;51.420;7.036;2024-02-23T00:33:56;6.00;99.90
18624;DHT22;9441;51.420;7.036;2024-02-23T00:34:58;6.00;99.90
18624;DHT22;9441;51.420;7.036;2024-02-23T00:35:59;6.00;99.90
18624;DHT22;9441;51.420;7.036;2024-02-23T00:37:01;6.00;1.00
18624;DHT22;9441;51.420;7.036;2024-02-23T00:38:03;6.00;1.00
18624;DHT22;9441;51.420;7.036;2024-02-23T00:39:06;6.00;1.00
18624;DHT22;9441;51.420;7.036;2024-02-23T00:40:09;6.10;1.00
18624;DHT22;9441;51.420;7.036;2024-02-23T00:41:11;6.00;1.00
18624;DHT22;9441;51.420;7.036;2024-02-23T00:42:12;6.00;1.00
18624;DHT22;9441;51.420;7.036;2024-02-23T00:43:15;6.00;1.00
18624;DHT22;9441;51.420;7.036;2024-02-23T00:44:17;6.00;1.00
18624;DHT22;9441;51.420;7.036;2024-02-23T00:45:18;6.10;1.00
18624;DHT22;9441;51.420;7.036;2024-02-23T00:46:20;6.00;1.00
18624;DHT22;9441;51.420;7.036;2024-02-23T00:47:21;6.10;1.00
18624;DHT22;9441;51.420;7.036;2024-02-23T00:48:22;6.00;1.00
18624;DHT22;9441;51.420;7.036;2024-02-23T00:49:24;6.00;1.00
18624;DHT22;9441;51.420;7.036;2024-02-23T00:50:25;6.00;1.00
18624;DHT22;9441;51.420;7.036;2024-02-23T00:51:27;6.00;1.00
18624;DHT22;9441;51.420;7.036;2024-02-23T00:52:28;6.00;1.00
18624;DHT22;9441;51.420;7.036;2024-02-23T00:53:31;6.00;99.90
18624;DHT22;9441;51.420;7.036;2024-02-23T00:54:32;5.90;99.90
18624;DHT22;9441;51.420;7.036;2024-02-23T00:55:34;5.90;63.90
18624;DHT22;9441;51.420;7.036;2024-02-23T00:56:35;6.00;99.90
18624;DHT22;9441;51.420;7.036;2024-02-23T00:57:38;5.90;1.00
18624;DHT22;9441;51.420;7.036;2024-02-23T00:58:40;5.90;57.90
18624;DHT22;9441;51.420;7.036;2024-02-23T00:59:43;5.90;99.90
18624;DHT22;9441;51.420;7.036;2024-02-23T01:00:44;5.90;99.90
18624;DHT22;9441;51.420;7.036;2024-02-23T01:01:46;5.90;99.90
18624;DHT22;9441;51.420;7.036;2024-02-23T01:02:47;5.90;99.90
18624;DHT22;9441;51.420;7.036;2024-02-23T01:03:49;5.90;99.90
18624;DHT22;9441;51.420;7.036;2024-02-23T01:04:50;5.90;99.90
18624;DHT22;9441;51.420;7.036;2024-02-23T01:05:51;5.90;99.90
18624;DHT22;9441;51.420;7.036;2024-02-23T01:06:53;5.90;99.90
18624;DHT22;9441;51.420;7.036;2024-02-23T01:07:54;5.90;1.00
18624;DHT22;9441;51.420;7.036;2024-02-23T01:08:55;5.90;1.00
18624;DHT22;9441;51.420;7.036;2024-02-23T01:09:57;5.80;1.00
18624;DHT22;9441;51.420;7.036;2024-02-23T01:10:59;5.90;1.00
18624;DHT22;9441;51.420;7.036;2024-02-23T01:12:01;5.90;1.00
18624;DHT22;9441;51.420;7.036;2024-02-23T01:13:02;5.90;1.00
18624;DHT22;9441;51.420;7.036;2024-02-23T01:14:07;5.80;1.00
18624;DHT22;9441;51.420;7.036;2024-02-23T01:15:08;5.90;1.00
18624;DHT22;9441;51.420;7.036;2024-02-23T01:16:10;5.80;1.00
18624;DHT22;9441;51.420;7.036;2024-02-23T01:17:11;5.80;1.00
18624;DHT22;9441;51.420;7.036;2024-02-23T01:18:13;5.80;1.00
18624;DHT22;9441;51.420;7.036;2024-02-23T01:19:14;5.80;1.00
18624;DHT22;9441;51.420;7.036;2024-02-23T01:20:17;5.80;99.90
18624;DHT22;9441;51.420;7.036;2024-02-23T01:21:18;5.70;99.90
18624;DHT22;9441;51.420;7.036;2024-02-23T01:22:20;5.70;99.90
18624;DHT22;9441;51.420;7.036;2024-02-23T01:23:21;5.70;99.90
18624;DHT22;9441;51.420;7.036;2024-02-23T01:24:23;5.70;99.90
18624;DHT22;9441;51.420;7.036;2024-02-23T01:25:26;5.70;96.70
18624;DHT22;9441;51.420;7.036;2024-02-23T01:26:28;5.70;1.00
18624;DHT22;9441;51.420;7.036;2024-02-23T01:27:29;5.70;1.00
18624;DHT22;9441;51.420;7.036;2024-02-23T01:28:31;5.70;99.90
18624;DHT22;9441;51.420;7.036;2024-02-23T01:29:34;5.70;1.00
18624;DHT22;9441;51.420;7.036;2024-02-23T01:30:36;5.70;1.00
18624;DHT22;9441;51.420;7.036;2024-02-23T01:31:37;5.70;1.00
18624;DHT22;9441;51.420;7.036;2024-02-23T01:32:39;5.70;1.00
18624;DHT22;9441;51.420;7.036;2024-02-23T01:33:40;5.60;1.00
18624;DHT22;9441;51.420;7.036;2024-02-23T01:34:42;5.60;1.00
18624;DHT22;9441;51.420;7.036;2024-02-23T01:35:43;5.70;1.00
18624;DHT22;9441;51.420;7.036;2024-02-23T01:36:45;5.70;1.00
18624;DHT22;9441;51.420;7.036;2024-02-23T01:37:46;5.70;1.00
18624;DHT22;9441;51.420;7.036;2024-02-23T01:38:48;5.70;1.00
18624;DHT22;9441;51.420;7.036;2024-02-23T01:39:49;5.80;1.00
18624;DHT22;9441;51.420;7.036;2024-02-23T01:40:51;5.80;1.00
18624;DHT22;9441;51.420;7.036;2024-02-23T01:41:52;5.80;1.00
18624;DHT22;9441;51.420;7.036;2024-02-23T01:43:02;5.80;1.00
18624;DHT22;9441;51.420;7.036;2024-02-23T01:44:03;5.80;1.00
18624;DHT22;9441;51.420;7.036;2024-02-23T01:45:08;5.80;1.00
18624;DHT22;9441;51.420;7.036;2024-02-23T01:46:09;5.80;1.00
18624;DHT22;9441;51.420;7.036;2024-02-23T01:47:11;5.90;1.00
18624;DHT22;9441;51.420;7.036;2024-02-23T01:48:13;5.90;1.00
18624;DHT22;9441;51.420;7.036;2024-02-23T01:49:15;5.80;1.00
18624;DHT22;9441;51.420;7.036;2024-02-23T01:50:16;5.80;1.00
18624;DHT22;9441;51.420;7.036;2024-02-23T01:51:18;5.80;1.00
18624;DHT22;9441;51.420;7.036;2024-02-23T01:52:20;5.90;1.00
18624;DHT22;9441;51.420;7.036;2024-02-23T01:53:22;5.90;1.00
18624;DHT22;9441;51.420;7.036;2024-02-23T01:54:25;5.90;1.00
18624;DHT22;9441;51.420;7.036;2024-02-23T01:55:29;5.90;1.00
18624;DHT22;9441;51.420;7.036;2024-02-23T01:56:31;6.00;1.00
18624;DHT22;9441;51.420;7.036;2024-02-23T01:57:34;5.90;99.90
18624;DHT22;9441;51.420;7.036;2024-02-23T01:58:35;5.90;99.90
18624;DHT22;9441;51.420;7.036;2024-02-23T01:59:39;6.00;99.90
18624;DHT22;9441;51.420;7.036;2024-02-23T02:00:41;5.90;99.90
18624;DHT22;9441;51.420;7.036;2024-02-23T02:01:44;5.90;25.60
18624;DHT22;9441;51.420;7.036;2024-02-23T02:02:45;5.90;99.90
18624;DHT22;9441;51.420;7.036;2024-02-23T02:03:49;5.90;20.60
18624;DHT22;9441;51.420;7.036;2024-02-23T02:04:50;5.90;50.10
18624;DHT22;9441;51.420;7.036;2024-02-23T02:05:52;5.90;1.00
18624;DHT22;9441;51.420;7.036;2024-02-23T02:06:54;5.90;1.00
18624;DHT22;9441;51.420;7.036;2024-02-23T02:07:57;5.90;1.00
18624;DHT22;9441;51.420;7.036;2024-02-23T02:08:59;5.90;1.00
18624;DHT22;9441;51.420;7.036;2024-02-23T02:10:02;5.90;1.00
18624;DHT22;9441;51.420;7.036;2024-02-23T02:11:04;6.00;1.00
18624;DHT22;9441;51.420;7.036;2024-02-23T02:12:06;5.90;1.00
18624;DHT22;9441;51.420;7.036;2024-02-23T02:13:07;5.90;1.00
18624;DHT22;9441;51.420;7.036;2024-02-23T02:14:08;5.90;1.00
18624;DHT22;9441;51.420;7.036;2024-02-23T02:15:11;5.90;1.00
18624;DHT22;9441;51.420;7.036;2024-02-23T02:16:13;6.00;1.00
18624;DHT22;9441;51.420;7.036;2024-02-23T02:17:15;6.00;1.00
18624;DHT22;9441;51.420;7.036;2024-02-23T02:18:16;6.00;1.00
18624;DHT22;9441;51.420;7.036;2024-02-23T02:19:19;6.00;1.00
18624;DHT22;9441;51.420;7.036;2024-02-23T02:20:24;6.00;99.90
18624;DHT22;9441;51.420;7.036;2024-02-23T02:21:26;6.00;99.90
18624;DHT22;9441;51.420;7.036;2024-02-23T02:22:28;6.00;99.90
18624;DHT22;9441;51.420;7.036;2024-02-23T02:23:31;6.00;99.90
18624;DHT22;9441;51.420;7.036;2024-02-23T02:24:32;6.00;76.70
18624;DHT22;9441;51.420;7.036;2024-02-23T02:25:34;6.00;14.80
18624;DHT22;9441;51.420;7.036;2024-02-23T02:26:36;6.00;1.00
18624;DHT22;9441;51.420;7.036;2024-02-23T02:27:39;6.00;1.00
18624;DHT22;9441;51.420;7.036;2024-02-23T02:28:40;6.00;1.00
18624;DHT22;9441;51.420;7.036;2024-02-23T02:29:41;6.00;1.00
18624;DHT22;9441;51.420;7.036;2024-02-23T02:30:43;6.00;60.10
18624;DHT22;9441;51.420;7.036;2024-02-23T02:31:46;6.00;1.00
18624;DHT22;9441;51.420;7.036;2024-02-23T02:32:47;6.00;26.30
18624;DHT22;9441;51.420;7.036;2024-02-23T02:33:49;6.00;1.00
18624;DHT22;9441;51.420;7.036;2024-02-23T02:34:50;6.00;1.00
18624;DHT22;9441;51.420;7.036;2024-02-23T02:35:51;6.00;1.00
18624;DHT22;9441;51.420;7.036;2024-02-23T02:36:53;6.00;1.00
18624;DHT22;9441;51.420;7.036;2024-02-23T02:37:54;6.00;1.00
18624;DHT22;9441;51.420;7.036;2024-02-23T02:38:56;6.00;1.00
18624;DHT22;9441;51.420;7.036;2024-02-23T02:39:59;6.00;1.00
18624;DHT22;9441;51.420;7.036;2024-02-23T02:41:00;6.00;1.00
18624;DHT22;9441;51.420;7.036;2024-02-23T02:42:02;5.90;1.00
18624;DHT22;9441;51.420;7.036;2024-02-23T02:43:03;6.00;1.00
18624;DHT22;9441;51.420;7.036;2024-02-23T02:44:06;6.00;1.00
18624;DHT22;9441;51.420;7.036;2024-02-23T02:45:08;5.90;1.00
18624;DHT22;9441;51.420;7.036;2024-02-23T02:46:10;5.90;1.00
18624;DHT22;9441;51.420;7.036;2024-02-23T02:47:12;5.90;1.00
18624;DHT22;9441;51.420;7.036;2024-02-23T02:48:14;6.00;1.00
18624;DHT22;9441;51.420;7.036;2024-02-23T02:49:15;5.80;1.00
18624;DHT22;9441;51.420;7.036;2024-02-23T02:50:17;6.00;1.00
18624;DHT22;9441;51.420;7.036;2024-02-23T02:51:18;5.90;1.00
18624;DHT22;9441;51.420;7.036;2024-02-23T02:52:20;5.80;99.90
18624;DHT22;9441;51.420;7.036;2024-02-23T02:53:23;5.80;99.90
18624;DHT22;9441;51.420;7.036;2024-02-23T02:54:25;5.80;99.90
18624;DHT22;9441;51.420;7.036;2024-02-23T02:55:26;5.90;99.90
18624;DHT22;9441;51.420;7.036;2024-02-23T02:56:28;5.80;99.90
18624;DHT22;9441;51.420;7.036;2024-02-23T02:57:29;5.80;66.90
18624;DHT22;9441;51.420;7.036;2024-02-23T02:58:31;5.80;53.10
18624;DHT22;9441;51.420;7.036;2024-02-23T02:59:34;5.80;95.40
18624;DHT22;9441;51.420;7.036;2024-02-23T03:00:36;5.80;1.00
18624;DHT22;9441;51.420;7.036;2024-02-23T03:01:37;5.80;99.90
18624;DHT22;9441;51.420;7.036;2024-02-23T03:02:40;5.80;99.90
18624;DHT22;9441;51.420;7.036;2024-02-23T03:03:41;5.80;99.90
18624;DHT22;9441;51.420;7.036;2024-02-23T03:04:47;5.90;99.90
18624;DHT22;9441;51.420;7.036;2024-02-23T03:05:48;5.80;99.90
18624;DHT22;9441;51.420;7.036;2024-02-23T03:06:50;5.80;73.50
18624;DHT22;9441;51.420;7.036;2024-02-23T03:07:51;5.80;63.50
18624;DHT22;9441;51.420;7.036;2024-02-23T03:08:53;5.80;99.90
18624;DHT22;9441;51.420;7.036;2024-02-23T03:09:54;5.90;1.00
18624;DHT22;9441;51.420;7.036;2024-02-23T03:10:55;5.80;99.90
18624;DHT22;9441;51.420;7.036;2024-02-23T03:11:57;5.80;99.90
18624;DHT22;9441;51.420;7.036;2024-02-23T03:12:58;5.80;99.90
18624;DHT22;9441;51.420;7.036;2024-02-23T03:14:00;5.70;99.90
18624;DHT22;9441;51.420;7.036;2024-02-23T03:15:01;5.70;99.90
18624;DHT22;9441;51.420;7.036;2024-02-23T03:16:03;5.70;1.00
18624;DHT22;9441;51.420;7.036;2024-02-23T03:17:07;5.70;1.00
18624;DHT22;9441;51.420;7.036;2024-02-23T03:18:09;5.70;99.90
18624;DHT22;9441;51.420;7.036;2024-02-23T03:19:11;5.70;99.90
18624;DHT22;9441;51.420;7.036;2024-02-23T03:20:12;5.80;99.90
18624;DHT22;9441;51.420;7.036;2024-02-23T03:21:14;5.70;1.00
18624;DHT22;9441;51.420;7.036;2024-02-23T03:22:16;5.70;1.00
18624;DHT22;9441;51.420;7.036;2024-02-23T03:23:18;5.70;1.00
18624;DHT22;9441;51.420;7.036;2024-02-23T03:24:19;5.80;61.30
18624;DHT22;9441;51.420;7.036;2024-02-23T03:25:20;5.80;1.00
18624;DHT22;9441;51.420;7.036;2024-02-23T03:26:21;5.70;1.00
18624;DHT22;9441;51.420;7.036;2024-02-23T03:27:28;5.80;1.00
18624;DHT22;9441;51.420;7.036;2024-02-23T03:28:29;5.80;85.60
18624;DHT22;9441;51.420;7.036;2024-02-23T03:29:31;5.80;45.30
18624;DHT22;9441;51.420;7.036;2024-02-23T03:30:32;5.80;99.90
18624;DHT22;9441;51.420;7.036;2024-02-23T03:31:34;5.80;1.00
18624;DHT22;9441;51.420;7.036;2024-02-23T03:32:35;5.70;1.00
18624;DHT22;9441;51.420;7.036;2024-02-23T03:33:39;5.80;1.00
18624;DHT22;9441;51.420;7.036;2024-02-23T03:34:41;5.70;1.00
18624;DHT22;9441;51.420;7.036;2024-02-23T03:35:44;5.70;1.00
18624;DHT22;9441;51.420;7.036;2024-02-23T03:36:45;5.70;1.00
18624;DHT22;9441;51.420;7.036;2024-02-23T03:37:47;5.80;1.00
18624;DHT22;9441;51.420;7.036;2024-02-23T03:38:48;5.80;1.00
18624;DHT22;9441;51.420;7.036;2024-02-23T03:39:49;5.80;1.00
18624;DHT22;9441;51.420;7.036;2024-02-23T03:40:50;5.70;1.00
18624;DHT22;9441;51.420;7.036;2024-02-23T03:41:53;5.80;1.00
18624;DHT22;9441;51.420;7.036;2024-02-23T03:42:54;5.70;1.00
18624;DHT22;9441;51.420;7.036;2024-02-23T03:43:56;5.80;1.00
18624;DHT22;9441;51.420;7.036;2024-02-23T03:44:57;5.70;1.00
18624;DHT22;9441;51.420;7.036;2024-02-23T03:45:59;5.80;1.00
18624;DHT22;9441;51.420;7.036;2024-02-23T03:47:00;5.70;1.00
18624;DHT22;9441;51.420;7.036;2024-02-23T03:48:04;5.80;1.00
18624;DHT22;9441;51.420;7.036;2024-02-23T03:49:06;5.80;1.00
18624;DHT22;9441;51.420;7.036;2024-02-23T03:50:09;5.80;1.00
18624;DHT22;9441;51.420;7.036;2024-02-23T03:51:10;5.80;1.00
18624;DHT22;9441;51.420;7.036;2024-02-23T03:52:12;5.70;99.90
18624;DHT22;9441;51.420;7.036;2024-02-23T03:53:13;5.80;99.90
18624;DHT22;9441;51.420;7.036;2024-02-23T03:54:15;5.80;99.90
18624;DHT22;9441;51.420;7.036;2024-02-23T03:55:16;5.80;99.90
18624;DHT22;9441;51.420;7.036;2024-02-23T03:56:18;5.80;99.90
18624;DHT22;9441;51.420;7.036;2024-02-23T03:57:19;5.80;99.90
18624;DHT22;9441;51.420;7.036;2024-02-23T03:58:21;5.70;6.10
18624;DHT22;9441;51.420;7.036;2024-02-23T03:59:22;5.80;99.90
18624;DHT22;9441;51.420;7.036;2024-02-23T04:00:23;5.80;99.90
18624;DHT22;9441;51.420;7.036;2024-02-23T04:01:25;5.70;99.90
18624;DHT22;9441;51.420;7.036;2024-02-23T04:02:26;5.70;99.90
18624;DHT22;9441;51.420;7.036;2024-02-23T04:03:28;5.80;99.90
18624;DHT22;9441;51.420;7.036;2024-02-23T04:04:30;5.90;1.00
18624;DHT22;9441;51.420;7.036;2024-02-23T04:05:32;5.80;99.90
18624;DHT22;9441;51.420;7.036;2024-02-23T04:06:34;5.80;1.00
18624;DHT22;9441;51.420;7.036;2024-02-23T04:07:35;5.80;99.90
18624;DHT22;9441;51.420;7.036;2024-02-23T04:08:37;5.80;99.90
18624;DHT22;9441;51.420;7.036;2024-02-23T04:09:38;5.70;99.90
18624;DHT22;9441;51.420;7.036;2024-02-23T04:10:40;5.70;99.90
18624;DHT22;9441;51.420;7.036;2024-02-23T04:11:41;5.80;1.00
18624;DHT22;9441;51.420;7.036;2024-02-23T04:12:43;5.80;99.90
18624;DHT22;9441;51.420;7.036;2024-02-23T04:13:44;5.70;99.90
18624;DHT22;9441;51.420;7.036;2024-02-23T04:14:46;5.70;99.90
18624;DHT22;9441;51.420;7.036;2024-02-23T04:15:47;5.70;99.90
18624;DHT22;9441;51.420;7.036;2024-02-23T04:16:49;5.80;99.90
18624;DHT22;9441;51.420;7.036;2024-02-23T04:17:49;5.70;99.90
18624;DHT22;9441;51.420;7.036;2024-02-23T04:18:52;5.80;99.90
18624;DHT22;9441;51.420;7.036;2024-02-23T04:19:54;5.80;99.90
18624;DHT22;9441;51.420;7.036;2024-02-23T04:20:56;5.70;1.00
18624;DHT22;9441;51.420;7.036;2024-02-23T04:21:57;5.70;82.40
18624;DHT22;9441;51.420;7.036;2024-02-23T04:22:59;5.80;99.90
18624;DHT22;9441;51.420;7.036;2024-02-23T04:24:00;5.80;76.80
18624;DHT22;9441;51.420;7.036;2024-02-23T04:25:02;5.70;1.00
18624;DHT22;9441;51.420;7.036;2024-02-23T04:26:03;5.70;9.40
18624;DHT22;9441;51.420;7.036;2024-02-23T04:27:06;5.80;1.00
18624;DHT22;9441;51.420;7.036;2024-02-23T04:28:07;5.70;1.00
18624;DHT22;9441;51.420;7.036;2024-02-23T04:29:09;5.70;1.00
18624;DHT22;9441;51.420;7.036;2024-02-23T04:30:10;5.70;1.00
18624;DHT22;9441;51.420;7.036;2024-02-23T04:31:12;5.70;1.00
18624;DHT22;9441;51.420;7.036;2024-02-23T04:32:13;5.80;1.00
18624;DHT22;9441;51.420;7.036;2024-02-23T04:33:16;5.70;1.00
18624;DHT22;9441;51.420;7.036;2024-02-23T04:34:17;5.70;1.00
18624;DHT22;9441;51.420;7.036;2024-02-23T04:35:20;5.70;1.00
18624;DHT22;9441;51.420;7.036;2024-02-23T04:36:21;5.70;1.00
18624;DHT22;9441;51.420;7.036;2024-02-23T04:37:23;5.70;99.90
18624;DHT22;9441;51.420;7.036;2024-02-23T04:38:24;5.70;1.00
18624;DHT22;9441;51.420;7.036;2024-02-23T04:39:26;5.70;1.00
18624;DHT22;9441;51.420;7.036;2024-02-23T04:40:27;5.70;1.00
18624;DHT22;9441;51.420;7.036;2024-02-23T04:41:29;5.70;99.90
18624;DHT22;9441;51.420;7.036;2024-02-23T04:42:30;5.70;99.90
18624;DHT22;9441;51.420;7.036;2024-02-23T04:43:32;5.70;81.20
18624;DHT22;9441;51.420;7.036;2024-02-23T04:44:33;5.70;96.60
18624;DHT22;9441;51.420;7.036;2024-02-23T04:45:35;5.70;1.00
18624;DHT22;9441;51.420;7.036;2024-02-23T04:46:36;5.70;1.00
18624;DHT22;9441;51.420;7.036;2024-02-23T04:47:37;5.70;16.00
18624;DHT22;9441;51.420;7.036;2024-02-23T04:48:41;5.80;99.90
18624;DHT22;9441;51.420;7.036;2024-02-23T04:49:42;5.80;99.90
18624;DHT22;9441;51.420;7.036;2024-02-23T04:50:45;5.70;1.00
18624;DHT22;9441;51.420;7.036;2024-02-23T04:51:46;5.80;1.00
18624;DHT22;9441;51.420;7.036;2024-02-23T04:52:48;5.70;1.00
18624;DHT22;9441;51.420;7.036;2024-02-23T04:53:50;5.80;3.80
18624;DHT22;9441;51.420;7.036;2024-02-23T04:54:52;5.80;1.00
18624;DHT22;9441;51.420;7.036;2024-02-23T04:55:53;5.70;1.00
18624;DHT22;9441;51.420;7.036;2024-02-23T04:56:55;5.70;1.00
18624;DHT22;9441;51.420;7.036;2024-02-23T04:57:56;5.70;1.00
18624;DHT22;9441;51.420;7.036;2024-02-23T04:58:57;5.70;1.00
18624;DHT22;9441;51.420;7.036;2024-02-23T04:59:59;5.70;1.00
18624;DHT22;9441;51.420;7.036;2024-02-23T05:01:00;5.80;1.00
18624;DHT22;9441;51.420;7.036;2024-02-23T05:02:01;5.80;1.00
18624;DHT22;9441;51.420;7.036;2024-02-23T05:03:04;5.80;1.00
18624;DHT22;9441;51.420;7.036;2024-02-23T05:04:05;5.80;1.00
18624;DHT22;9441;51.420;7.036;2024-02-23T05:05:07;5.80;1.00
18624;DHT22;9441;51.420;7.036;2024-02-23T05:06:10;5.80;1.00
18624;DHT22;9441;51.420;7.036;2024-02-23T05:07:11;5.80;1.00
18624;DHT22;9441;51.420;7.036;2024-02-23T05:08:13;5.80;1.00
18624;DHT22;9441;51.420;7.036;2024-02-23T05:09:14;5.80;1.00
18624;DHT22;9441;51.420;7.036;2024-02-23T05:10:16;5.80;1.00
18624;DHT22;9441;51.420;7.036;2024-02-23T05:11:17;5.80;1.00
18624;DHT22;9441;51.420;7.036;2024-02-23T05:12:18;5.80;1.00
18624;DHT22;9441;51.420;7.036;2024-02-23T05:13:20;5.80;1.00
18624;DHT22;9441;51.420;7.036;2024-02-23T05:14:21;5.80;1.00
18624;DHT22;9441;51.420;7.036;2024-02-23T05:15:23;5.80;1.00
18624;DHT22;9441;51.420;7.036;2024-02-23T05:16:24;5.80;1.00
18624;DHT22;9441;51.420;7.036;2024-02-23T05:17:26;5.80;1.00
18624;DHT22;9441;51.420;7.036;2024-02-23T05:18:28;5.80;1.00
18624;DHT22;9441;51.420;7.036;2024-02-23T05:19:30;5.80;1.00
18624;DHT22;9441;51.420;7.036;2024-02-23T05:20:31;5.80;1.00
18624;DHT22;9441;51.420;7.036;2024-02-23T05:21:34;5.80;1.00
18624;DHT22;9441;51.420;7.036;2024-02-23T05:22:35;5.80;1.00
18624;DHT22;9441;51.420;7.036;2024-02-23T05:23:36;5.80;1.00
18624;DHT22;9441;51.420;7.036;2024-02-23T05:24:38;5.80;1.00
18624;DHT22;9441;51.420;7.036;2024-02-23T05:25:39;5.90;1.00
18624;DHT22;9441;51.420;7.036;2024-02-23T05:26:40;5.80;1.00
18624;DHT22;9441;51.420;7.036;2024-02-23T05:27:43;5.80;1.00
18624;DHT22;9441;51.420;7.036;2024-02-23T05:28:45;5.80;1.00
18624;DHT22;9441;51.420;7.036;2024-02-23T05:29:46;5.80;1.00
18624;DHT22;9441;51.420;7.036;2024-02-23T05:30:47;5.80;1.00
18624;DHT22;9441;51.420;7.036;2024-02-23T05:31:51;5.80;1.00
18624;DHT22;9441;51.420;7.036;2024-02-23T05:32:53;5.80;1.00
18624;DHT22;9441;51.420;7.036;2024-02-23T05:33:54;5.80;1.00
18624;DHT22;9441;51.420;7.036;2024-02-23T05:34:56;5.80;1.00
18624;DHT22;9441;51.420;7.036;2024-02-23T05:35:57;5.80;1.00
18624;DHT22;9441;51.420;7.036;2024-02-23T05:37:01;5.80;1.00
18624;DHT22;9441;51.420;7.036;2024-02-23T05:38:02;5.80;1.00
18624;DHT22;9441;51.420;7.036;2024-02-23T05:39:04;5.90;1.00
18624;DHT22;9441;51.420;7.036;2024-02-23T05:40:08;5.80;1.00
18624;DHT22;9441;51.420;7.036;2024-02-23T05:41:12;5.80;99.90
18624;DHT22;9441;51.420;7.036;2024-02-23T05:42:14;5.90;99.90
18624;DHT22;9441;51.420;7.036;2024-02-23T05:43:15;5.90;99.90
18624;DHT22;9441;51.420;7.036;2024-02-23T05:44:16;5.80;99.90
18624;DHT22;9441;51.420;7.036;2024-02-23T05:45:18;5.80;99.90
18624;DHT22;9441;51.420;7.036;2024-02-23T05:46:19;5.80;99.90
18624;DHT22;9441;51.420;7.036;2024-02-23T05:47:21;5.80;23.60
18624;DHT22;9441;51.420;7.036;2024-02-23T05:48:23;5.80;67.40
18624;DHT22;9441;51.420;7.036;2024-02-23T05:49:25;5.80;1.00
18624;DHT22;9441;51.420;7.036;2024-02-23T05:50:26;5.80;11.30
18624;DHT22;9441;51.420;7.036;2024-02-23T05:51:28;5.80;90.80
18624;DHT22;9441;51.420;7.036;2024-02-23T05:52:31;5.80;99.90
18624;DHT22;9441;51.420;7.036;2024-02-23T05:53:33;5.80;99.90
18624;DHT22;9441;51.420;7.036;2024-02-23T05:54:35;5.80;99.90
18624;DHT22;9441;51.420;7.036;2024-02-23T05:55:37;5.70;99.90
18624;DHT22;9441;51.420;7.036;2024-02-23T05:56:38;5.70;99.90
18624;DHT22;9441;51.420;7.036;2024-02-23T05:57:40;5.70;99.90
18624;DHT22;9441;51.420;7.036;2024-02-23T05:58:41;5.70;99.90
18624;DHT22;9441;51.420;7.036;2024-02-23T05:59:43;5.70;99.90
18624;DHT22;9441;51.420;7.036;2024-02-23T06:00:44;5.70;99.90
18624;DHT22;9441;51.420;7.036;2024-02-23T06:01:46;5.70;99.90
18624;DHT22;9441;51.420;7.036;2024-02-23T06:02:47;5.70;92.60
18624;DHT22;9441;51.420;7.036;2024-02-23T06:03:49;5.70;37.00
18624;DHT22;9441;51.420;7.036;2024-02-23T06:04:50;5.70;16.50
18624;DHT22;9441;51.420;7.036;2024-02-23T06:05:52;5.70;1.00
18624;DHT22;9441;51.420;7.036;2024-02-23T06:06:54;5.70;1.00
18624;DHT22;9441;51.420;7.036;2024-02-23T06:07:58;5.70;1.00
18624;DHT22;9441;51.420;7.036;2024-02-23T06:08:59;5.60;1.00
18624;DHT22;9441;51.420;7.036;2024-02-23T06:10:03;5.60;1.00
18624;DHT22;9441;51.420;7.036;2024-02-23T06:11:05;5.60;1.00
18624;DHT22;9441;51.420;7.036;2024-02-23T06:12:08;5.70;27.40
18624;DHT22;9441;51.420;7.036;2024-02-23T06:13:09;5.60;1.00
18624;DHT22;9441;51.420;7.036;2024-02-23T06:14:11;5.60;1.00
18624;DHT22;9441;51.420;7.036;2024-02-23T06:15:12;5.60;1.00
18624;DHT22;9441;51.420;7.036;2024-02-23T06:16:15;5.70;1.00
18624;DHT22;9441;51.420;7.036;2024-02-23T06:17:16;5.70;1.00
18624;DHT22;9441;51.420;7.036;2024-02-23T06:18:18;5.70;1.00
18624;DHT22;9441;51.420;7.036;2024-02-23T06:19:19;5.70;1.00
18624;DHT22;9441;51.420;7.036;2024-02-23T06:20:21;5.70;1.00
18624;DHT22;9441;51.420;7.036;2024-02-23T06:21:22;5.70;1.00
18624;DHT22;9441;51.420;7.036;2024-02-23T06:22:23;5.70;1.00
18624;DHT22;9441;51.420;7.036;2024-02-23T06:23:27;5.70;1.00
18624;DHT22;9441;51.420;7.036;2024-02-23T06:24:30;5.80;1.00
18624;DHT22;9441;51.420;7.036;2024-02-23T06:25:32;5.80;1.00
18624;DHT22;9441;51.420;7.036;2024-02-23T06:26:33;5.80;1.00
18624;DHT22;9441;51.420;7.036;2024-02-23T06:27:36;5.80;1.00
18624;DHT22;9441;51.420;7.036;2024-02-23T06:28:37;5.80;1.00
18624;DHT22;9441;51.420;7.036;2024-02-23T06:29:39;5.70;1.00
18624;DHT22;9441;51.420;7.036;2024-02-23T06:30:40;5.70;1.00
18624;DHT22;9441;51.420;7.036;2024-02-23T06:31:45;5.80;1.00
18624;DHT22;9441;51.420;7.036;2024-02-23T06:32:50;5.70;99.90
18624;DHT22;9441;51.420;7.036;2024-02-23T06:33:52;5.70;99.90
18624;DHT22;9441;51.420;7.036;2024-02-23T06:34:53;5.70;99.90
18624;DHT22;9441;51.420;7.036;2024-02-23T06:35:55;5.80;99.90
18624;DHT22;9441;51.420;7.036;2024-02-23T06:36:56;5.70;99.90
18624;DHT22;9441;51.420;7.036;2024-02-23T06:37:58;5.70;99.90
18624;DHT22;9441;51.420;7.036;2024-02-23T06:39:01;5.70;99.90
18624;DHT22;9441;51.420;7.036;2024-02-23T06:40:04;5.80;99.90
18624;DHT22;9441;51.420;7.036;2024-02-23T06:41:05;5.80;99.90
18624;DHT22;9441;51.420;7.036;2024-02-23T06:42:09;5.80;99.90
18624;DHT22;9441;51.420;7.036;2024-02-23T06:43:10;5.70;99.90
18624;DHT22;9441;51.420;7.036;2024-02-23T06:44:12;5.70;99.90
18624;DHT22;9441;51.420;7.036;2024-02-23T06:45:13;5.70;99.90
18624;DHT22;9441;51.420;7.036;2024-02-23T06:46:19;5.80;99.90
18624;DHT22;9441;51.420;7.036;2024-02-23T06:47:20;5.70;99.90
18624;DHT22;9441;51.420;7.036;2024-02-23T06:48:23;5.70;99.90